Time;durP1;ratioP1;P1;durP2;ratioP2;P2;SDS_P1;SDS_P2;PMS_P1;PMS_P2;Temp;Humidity;BMP_temperature;BMP_pressure;BME280_temperature;BME280_humidity;BME280_pressure;Samples;Min_cycle;Max_cycle;Signal;HPM_P1;HPM_P2
2023/03/17 00:00:49;;;;;;;5.07;4.60;;;;;;;4.49;81.94;95219.09;4976726;28;20287;-69
2023/03/17 00:03:21;;;;;;;5.20;4.80;;;;;;;4.41;82.07;95221.69;4975236;28;20205;-69
2023/03/17 00:05:48;;;;;;;5.27;4.87;;;;;;;4.28;82.46;95217.56;4977080;28;20205;-70
2023/03/17 00:08:21;;;;;;;4.97;4.63;;;;;;;4.34;82.00;95228.44;4975063;28;20595;-69
2023/03/17 00:10:48;;;;;;;6.32;4.97;;;;;;;4.29;82.03;95226.78;4977032;28;20197;-70
2023/03/17 00:13:16;;;;;;;5.05;4.55;;;;;;;4.25;82.81;95235.19;4975460;28;20687;-64
2023/03/17 00:15:43;;;;;;;5.57;5.18;;;;;;;4.18;83.08;95226.06;4978072;28;20216;-70
2023/03/17 00:18:13;;;;;;;5.15;4.85;;;;;;;4.18;82.89;95228.56;4978086;28;20882;-70
2023/03/17 00:20:42;;;;;;;5.20;4.80;;;;;;;4.13;83.75;95230.28;4974901;28;20420;-70
2023/03/17 00:23:15;;;;;;;4.68;4.38;;;;;;;4.14;83.52;95226.91;4974701;28;20209;-70
2023/03/17 00:25:42;;;;;;;4.63;4.32;;;;;;;4.14;83.46;95231.94;4976240;28;20271;-68
2023/03/17 00:28:16;;;;;;;4.95;4.65;;;;;;;4.19;82.91;95227.72;4976581;28;20248;-70
2023/03/17 00:30:43;;;;;;;4.78;4.38;;;;;;;4.22;83.76;95231.03;4975958;28;20213;-69
2023/03/17 00:33:11;;;;;;;5.00;4.63;;;;;;;4.29;83.33;95225.13;4977136;28;20224;-69
2023/03/17 00:35:39;;;;;;;4.93;4.63;;;;;;;4.29;82.47;95227.63;4977092;28;20262;-69
2023/03/17 00:38:14;;;;;;;4.70;4.35;;;;;;;4.22;82.69;95217.63;4975930;28;20220;-69
2023/03/17 00:40:42;;;;;;;4.63;4.32;;;;;;;4.28;82.95;95225.13;4973012;28;20228;-67
2023/03/17 00:43:09;;;;;;;4.63;4.22;;;;;;;4.29;82.66;95227.63;4976205;28;20215;-69
2023/03/17 00:45:36;;;;;;;4.63;4.32;;;;;;;4.43;82.13;95225.88;4975275;28;20208;-69
2023/03/17 00:48:06;;;;;;;4.53;4.22;;;;;;;4.41;82.06;95227.56;4976971;28;20217;-69
2023/03/17 00:50:33;;;;;;;4.97;4.68;;;;;;;4.39;82.46;95233.44;4977177;28;20209;-70
2023/03/17 00:53:00;;;;;;;4.85;4.47;;;;;;;4.37;82.04;95227.59;4976776;28;20263;-69
2023/03/17 00:55:28;;;;;;;4.80;4.47;;;;;;;4.40;82.42;95230.09;4976094;28;20303;-69
2023/03/17 00:57:55;;;;;;;4.90;4.50;;;;;;;4.34;82.51;95235.16;4976823;28;20566;-69
2023/03/17 01:00:25;;;;;;;4.10;3.90;;;;;;;4.44;82.33;95234.25;4974839;28;20653;-69
2023/03/17 01:02:54;;;;;;;4.80;4.50;;;;;;;4.39;82.58;95235.97;4976111;28;20300;-69
2023/03/17 01:05:22;;;;;;;4.88;4.57;;;;;;;4.36;82.53;95234.31;4974814;28;20713;-69
2023/03/17 01:07:52;;;;;;;4.60;4.30;;;;;;;4.34;82.78;95230.97;4976734;28;20212;-68
2023/03/17 01:10:24;;;;;;;4.75;4.35;;;;;;;4.35;82.98;95231.78;4975852;28;20282;-69
2023/03/17 01:12:54;;;;;;;3.88;3.67;;;;;;;4.37;82.67;95235.13;4975403;28;20331;-69
2023/03/17 01:15:22;;;;;;;4.53;4.05;;;;;;;4.35;83.04;95237.66;4976757;28;20240;-69
2023/03/17 01:17:50;;;;;;;4.63;4.32;;;;;;;4.30;82.66;95228.47;4977595;28;20798;-69
2023/03/17 01:20:20;;;;;;;4.20;3.90;;;;;;;4.32;82.95;95236.84;4976884;28;20822;-70
2023/03/17 01:22:48;;;;;;;4.40;4.03;;;;;;;4.37;82.67;95235.97;4976306;28;20209;-70
2023/03/17 01:25:15;;;;;;;4.35;4.03;;;;;;;4.37;82.68;95235.13;4973870;28;20208;-70
2023/03/17 01:27:42;;;;;;;4.70;4.30;;;;;;;4.45;82.20;95238.44;4974495;28;20249;-70
2023/03/17 01:30:22;;;;;;;4.50;4.10;;;;;;;4.49;81.74;95240.06;4977272;28;20205;-70
2023/03/17 01:32:49;;;;;;;6.97;3.83;;;;;;;4.48;82.15;95238.41;4975275;28;20211;-69
2023/03/17 01:35:16;;;;;;;4.22;3.92;;;;;;;4.49;81.88;95240.06;4977131;28;20212;-69
2023/03/17 01:37:43;;;;;;;3.72;3.53;;;;;;;4.48;82.16;95237.56;4975584;28;20637;-70
2023/03/17 01:40:16;;;;;;;4.28;3.97;;;;;;;4.42;82.72;95240.97;4974750;28;20375;-68
2023/03/17 01:42:47;;;;;;;4.13;3.83;;;;;;;4.40;82.51;95245.19;4977378;28;20240;-69
2023/03/17 01:45:52;;;;;;;3.88;3.58;;;;;;;4.33;82.94;95243.53;4974651;28;20216;-68
2023/03/17 01:48:20;;;;;;;4.70;4.30;;;;;;;4.32;82.63;95231.81;4975209;28;20295;-70
2023/03/17 01:50:48;;;;;;;4.25;3.95;;;;;;;4.36;82.34;95243.53;4975124;28;20201;-69
2023/03/17 01:53:16;;;;;;;4.53;4.22;;;;;;;4.39;82.77;95246.03;4974349;28;20303;-69
2023/03/17 01:55:45;;;;;;;4.55;4.15;;;;;;;4.41;82.32;95252.72;4974576;28;20296;-68
2023/03/17 01:58:14;;;;;;;4.22;3.83;;;;;;;4.40;82.36;95247.69;4974684;28;20205;-69
2023/03/17 02:00:42;;;;;;;3.70;3.50;;;;;;;4.39;82.17;95256.09;4974396;28;20233;-69
2023/03/17 02:03:10;;;;;;;4.25;4.05;;;;;;;4.34;82.32;95250.25;4974744;28;20209;-69
2023/03/17 02:05:39;;;;;;;4.15;3.85;;;;;;;4.26;82.37;95251.97;4976019;28;20335;-69
2023/03/17 02:08:11;;;;;;;4.10;3.90;;;;;;;4.29;82.38;95247.75;4974162;28;20282;-69
2023/03/17 02:10:38;;;;;;;4.47;3.85;;;;;;;4.34;82.12;95255.28;4976186;28;20244;-69
2023/03/17 02:13:06;;;;;;;4.35;3.95;;;;;;;4.31;82.10;95245.22;4976906;28;20263;-69
2023/03/17 02:15:39;;;;;;;4.45;4.05;;;;;;;4.39;82.14;95258.59;4974645;28;20205;-69
2023/03/17 02:18:06;;;;;;;5.60;4.28;;;;;;;4.33;82.35;95258.63;4974800;28;20680;-69
2023/03/17 02:21:13;;;;;;;4.05;3.75;;;;;;;4.31;82.38;95261.16;4974614;28;20225;-69
2023/03/17 02:23:41;;;;;;;4.53;4.18;;;;;;;4.35;82.09;95262.81;4973608;28;20213;-69
2023/03/17 02:26:08;;;;;;;4.28;3.97;;;;;;;4.32;82.57;95267.03;4973231;28;20227;-69
2023/03/17 02:28:35;;;;;;;4.32;4.00;;;;;;;4.34;82.85;95272.88;4974098;28;20236;-70
2023/03/17 02:31:03;;;;;;;5.07;4.68;;;;;;;4.35;82.94;95267.03;4978002;28;20205;-69
2023/03/17 02:33:30;;;;;;;4.90;4.60;;;;;;;4.42;82.65;95266.97;4974967;28;20205;-69
2023/03/17 02:35:57;;;;;;;5.20;4.32;;;;;;;4.44;82.50;95270.31;4976237;28;20209;-69
2023/03/17 02:38:24;;;;;;;3.95;3.75;;;;;;;4.36;82.32;95268.69;4974600;28;20208;-70
2023/03/17 02:40:52;;;;;;;5.07;4.43;;;;;;;4.32;82.32;95272.91;4976012;28;22093;-69
2023/03/17 02:43:18;;;;;;;5.10;4.65;;;;;;;4.30;81.95;95264.53;4977775;28;20197;-68
2023/03/17 02:45:45;;;;;;;4.82;4.50;;;;;;;4.33;81.72;95278.78;4975274;28;20582;-68
2023/03/17 02:48:12;;;;;;;4.60;4.30;;;;;;;4.36;81.93;95283.78;4978503;28;20271;-69
2023/03/17 02:50:39;;;;;;;4.50;4.20;;;;;;;4.32;81.80;95282.97;4981150;28;20276;-69
2023/03/17 02:53:07;;;;;;;4.32;4.03;;;;;;;4.29;82.23;95288.00;4978338;28;20214;-68
2023/03/17 02:55:33;;;;;;;5.00;4.57;;;;;;;4.28;82.48;95288.84;4977290;28;20209;-69
2023/03/17 02:58:02;;;;;;;4.93;4.45;;;;;;;4.31;82.16;95293.88;4978022;28;20205;-69
2023/03/17 03:00:29;;;;;;;4.40;4.10;;;;;;;4.31;82.31;95290.53;4978614;28;20228;-68
2023/03/17 03:02:56;;;;;;;4.68;4.38;;;;;;;4.33;82.21;95288.84;4977835;28;20303;-69
2023/03/17 03:05:22;;;;;;;4.97;4.28;;;;;;;4.35;82.07;95284.63;4978513;28;20210;-70
2023/03/17 03:07:50;;;;;;;4.20;3.90;;;;;;;4.36;82.17;95299.72;4977389;28;20623;-69
2023/03/17 03:10:17;;;;;;;4.35;4.05;;;;;;;4.38;82.00;95293.00;4978172;28;20209;-69
2023/03/17 03:12:44;;;;;;;5.32;4.72;;;;;;;4.41;81.61;95300.53;4978238;28;20359;-69
2023/03/17 03:15:13;;;;;;;5.40;4.70;;;;;;;4.42;81.92;95302.22;4979889;28;20304;-69
2023/03/17 03:17:40;;;;;;;4.50;4.10;;;;;;;4.44;81.77;95298.00;4978707;28;20224;-69
2023/03/17 03:20:10;;;;;;;4.75;4.35;;;;;;;4.48;81.59;95293.75;4978132;28;20579;-69
2023/03/17 03:22:37;;;;;;;4.25;4.03;;;;;;;4.42;81.57;95304.72;4978349;28;20227;-69
2023/03/17 03:25:04;;;;;;;4.93;4.40;;;;;;;4.39;81.63;95303.91;4977362;28;20290;-69
2023/03/17 03:27:31;;;;;;;4.30;3.92;;;;;;;4.31;81.61;95305.63;4978306;28;20350;-69
2023/03/17 03:29:58;;;;;;;4.60;4.22;;;;;;;4.27;81.19;95309.00;4976924;28;20209;-69
2023/03/17 03:32:26;;;;;;;4.88;4.57;;;;;;;4.26;81.64;95317.38;4978866;28;20224;-69
2023/03/17 03:34:53;;;;;;;4.85;4.10;;;;;;;4.16;81.75;95320.81;4977608;28;20810;-69
2023/03/17 03:37:20;;;;;;;5.13;4.32;;;;;;;4.08;82.38;95319.16;4978118;28;20653;-69
2023/03/17 03:39:47;;;;;;;5.32;4.85;;;;;;;4.10;81.82;95319.97;4977003;28;21737;-69
2023/03/17 03:42:15;;;;;;;4.88;4.50;;;;;;;4.06;82.49;95313.28;4977430;28;20738;-69
2023/03/17 03:44:41;;;;;;;4.63;4.22;;;;;;;4.04;82.59;95309.94;4977574;28;20209;-69
2023/03/17 03:47:08;;;;;;;4.63;4.35;;;;;;;4.13;82.38;95323.31;4977208;28;20210;-68
2023/03/17 03:49:36;;;;;;;4.85;4.45;;;;;;;4.18;82.77;95324.97;4977060;28;20303;-69
2023/03/17 03:52:03;;;;;;;4.70;4.30;;;;;;;4.25;82.15;95320.72;4975572;28;20675;-71
2023/03/17 03:54:30;;;;;;;4.68;4.28;;;;;;;4.25;82.02;95318.22;4977149;28;20268;-68
2023/03/17 03:56:57;;;;;;;4.78;4.45;;;;;;;4.21;82.34;95319.91;4976287;28;20232;-69
2023/03/17 03:59:23;;;;;;;4.78;4.47;;;;;;;4.21;82.71;95326.63;4977994;28;20331;-69
2023/03/17 04:01:50;;;;;;;6.68;4.68;;;;;;;4.24;82.87;95324.09;4978550;28;20315;-69
2023/03/17 04:04:17;;;;;;;4.45;4.15;;;;;;;4.31;82.47;95323.22;4975735;28;20348;-69
2023/03/17 04:06:45;;;;;;;4.43;4.13;;;;;;;4.27;82.43;95326.59;4979406;28;20279;-69
2023/03/17 04:09:12;;;;;;;4.22;3.92;;;;;;;4.24;82.90;95334.16;4976488;28;20241;-69
2023/03/17 04:11:38;;;;;;;4.57;4.18;;;;;;;4.23;82.62;95340.03;4977534;28;20689;-69
2023/03/17 04:14:05;;;;;;;4.50;4.20;;;;;;;4.23;81.81;95347.56;4979972;28;20218;-69
2023/03/17 04:16:32;;;;;;;6.18;4.80;;;;;;;4.26;81.80;95340.00;4977721;28;20312;-70
2023/03/17 04:18:59;;;;;;;4.85;4.45;;;;;;;4.22;81.29;95344.22;4979133;28;20574;-68
2023/03/17 04:21:26;;;;;;;4.65;4.35;;;;;;;4.21;81.35;95345.06;4978316;28;20279;-69
2023/03/17 04:23:54;;;;;;;4.65;4.35;;;;;;;4.24;81.63;95349.25;4978017;28;20258;-69
2023/03/17 04:26:21;;;;;;;6.50;5.43;;;;;;;4.23;81.62;95352.59;4976442;28;20256;-69
2023/03/17 04:28:49;;;;;;;5.57;5.07;;;;;;;4.17;81.87;95345.09;4978236;28;20251;-68
2023/03/17 04:31:15;;;;;;;5.38;4.88;;;;;;;4.23;81.48;95352.59;4976112;28;20676;-69
2023/03/17 04:33:42;;;;;;;5.40;4.47;;;;;;;4.15;81.09;95345.13;4978300;28;20205;-69
2023/03/17 04:36:17;;;;;;;5.07;4.68;;;;;;;4.23;81.16;95353.44;4976919;28;20640;-69
2023/03/17 04:38:43;;;;;;;5.07;4.75;;;;;;;4.22;80.58;95358.47;4978545;28;20216;-69
2023/03/17 04:41:12;;;;;;;5.05;4.65;;;;;;;4.30;79.83;95354.25;4977566;28;20318;-69
2023/03/17 04:43:39;;;;;;;4.65;4.30;;;;;;;4.33;79.63;95356.75;4978798;28;20209;-69
2023/03/17 04:46:05;;;;;;;6.60;4.47;;;;;;;4.26;79.81;95367.69;4976180;28;20831;-69
2023/03/17 04:48:32;;;;;;;5.10;4.57;;;;;;;4.23;80.66;95366.03;4977883;28;20208;-69
2023/03/17 04:50:59;;;;;;;4.85;4.53;;;;;;;4.29;80.65;95368.50;4976746;28;20313;-69
2023/03/17 04:53:26;;;;;;;5.75;5.35;;;;;;;4.25;80.64;95366.00;4978667;28;20630;-70
2023/03/17 04:55:52;;;;;;;11.20;8.65;;;;;;;4.19;80.57;95371.09;4978345;28;20200;-67
2023/03/17 04:58:20;;;;;;;20.05;10.73;;;;;;;4.28;80.84;95376.06;4978082;28;20204;-69
2023/03/17 05:00:47;;;;;;;7.25;6.65;;;;;;;4.36;80.26;95379.41;4976259;28;20212;-69
2023/03/17 05:03:14;;;;;;;7.80;5.90;;;;;;;4.36;80.33;95385.25;4976938;28;21028;-68
2023/03/17 05:05:41;;;;;;;5.90;5.32;;;;;;;4.40;80.43;95381.06;4976769;28;20268;-69
2023/03/17 05:08:08;;;;;;;4.55;4.25;;;;;;;4.49;80.20;95383.50;4975962;28;20327;-69
2023/03/17 05:10:35;;;;;;;5.43;5.03;;;;;;;4.54;79.17;95391.03;4975482;28;20705;-69
2023/03/17 05:13:01;;;;;;;4.95;4.57;;;;;;;4.45;79.74;95386.91;4975973;28;20201;-69
2023/03/17 05:15:30;;;;;;;5.72;5.07;;;;;;;4.49;79.36;95396.09;4976460;28;21093;-69
2023/03/17 05:17:57;;;;;;;5.50;5.00;;;;;;;4.48;79.70;95398.63;4974865;28;20267;-70
2023/03/17 05:20:24;;;;;;;5.13;4.72;;;;;;;4.52;79.42;95406.16;4975473;28;20305;-69
2023/03/17 05:22:50;;;;;;;5.35;4.95;;;;;;;4.59;79.09;95401.94;4977393;28;21098;-69
2023/03/17 05:25:18;;;;;;;4.65;4.40;;;;;;;4.59;79.14;95407.81;4974175;28;20741;-69
2023/03/17 05:27:44;;;;;;;6.38;4.50;;;;;;;4.59;79.10;95410.31;4974450;28;20729;-68
2023/03/17 05:30:12;;;;;;;7.03;6.25;;;;;;;4.59;79.19;95412.00;4975740;28;20293;-69
2023/03/17 05:32:40;;;;;;;9.18;7.43;;;;;;;4.66;79.67;95414.50;5004124;22;20323;-69
2023/03/17 05:35:08;;;;;;;7.72;6.93;;;;;;;4.81;79.21;95417.75;4995558;28;20207;-68
2023/03/17 05:37:34;;;;;;;6.28;5.78;;;;;;;4.91;78.46;95421.91;4996895;28;20214;-69
2023/03/17 05:40:01;;;;;;;5.07;4.60;;;;;;;4.87;78.13;95418.56;4994105;28;20905;-69
2023/03/17 05:42:28;;;;;;;5.22;4.80;;;;;;;4.87;78.21;95417.72;4998266;28;20232;-67
2023/03/17 05:44:55;;;;;;;5.43;4.93;;;;;;;4.86;78.32;95426.13;4996555;28;20308;-69
2023/03/17 05:47:22;;;;;;;5.63;4.88;;;;;;;4.98;77.70;95419.31;4994100;28;20207;-70
2023/03/17 05:49:50;;;;;;;5.63;5.05;;;;;;;5.08;77.84;95423.47;4994716;28;20294;-70
2023/03/17 05:52:17;;;;;;;4.97;4.57;;;;;;;5.04;77.28;95409.22;4995278;28;20369;-70
2023/03/17 05:54:46;;;;;;;4.95;4.60;;;;;;;5.14;77.09;95425.09;4994329;28;20212;-69
2023/03/17 05:57:13;;;;;;;6.05;5.55;;;;;;;5.20;77.31;95421.72;4995804;28;20295;-69
2023/03/17 05:59:41;;;;;;;5.47;4.97;;;;;;;5.27;77.09;95426.69;4994472;28;20290;-69
2023/03/17 06:02:08;;;;;;;6.35;5.70;;;;;;;5.33;77.00;95434.19;4995582;28;20299;-68
2023/03/17 06:04:35;;;;;;;5.40;4.90;;;;;;;5.43;76.91;95445.91;4996950;28;20682;-68
2023/03/17 06:07:04;;;;;;;5.95;5.47;;;;;;;5.54;76.40;95457.56;4996820;28;20243;-70
2023/03/17 06:09:32;;;;;;;5.13;4.82;;;;;;;5.62;75.93;95458.34;4995411;28;21186;-68
2023/03/17 06:11:58;;;;;;;5.63;4.75;;;;;;;5.66;75.28;95462.53;4994955;28;20521;-68
2023/03/17 06:14:25;;;;;;;5.40;5.03;;;;;;;5.78;74.62;95469.97;4994221;28;20361;-68
2023/03/17 06:16:52;;;;;;;4.57;4.20;;;;;;;5.85;74.43;95469.06;4995528;28;20217;-71
2023/03/17 06:19:19;;;;;;;6.18;5.63;;;;;;;5.90;73.91;95457.28;4993887;28;20378;-71
2023/03/17 06:21:46;;;;;;;5.32;4.85;;;;;;;5.94;73.91;95468.19;4997325;28;20279;-70
2023/03/17 06:24:14;;;;;;;5.53;5.13;;;;;;;5.98;74.83;95465.59;4998156;28;20215;-68
2023/03/17 06:26:41;;;;;;;6.43;5.72;;;;;;;6.08;74.00;95471.41;4998303;28;20238;-68
2023/03/17 06:29:08;;;;;;;5.63;5.13;;;;;;;6.27;73.70;95472.06;5001199;28;20217;-68
2023/03/17 06:31:35;;;;;;;6.45;5.82;;;;;;;6.41;72.80;95478.66;4999471;28;20208;-71
2023/03/17 06:34:02;;;;;;;5.93;5.43;;;;;;;6.55;72.10;95478.47;4998109;28;20864;-69
2023/03/17 06:36:29;;;;;;;4.45;4.13;;;;;;;6.55;72.10;95475.97;4997123;28;20776;-69
2023/03/17 06:38:55;;;;;;;5.35;4.95;;;;;;;6.63;71.64;95470.81;4996804;28;20302;-69
2023/03/17 06:41:23;;;;;;;5.40;4.30;;;;;;;6.68;70.83;95480.00;4997359;28;20303;-71
2023/03/17 06:43:51;;;;;;;5.82;5.32;;;;;;;6.70;69.56;95478.28;5000048;28;20201;-69
2023/03/17 06:46:18;;;;;;;6.22;5.13;;;;;;;6.77;70.37;95487.47;4998010;28;20205;-69
2023/03/17 06:48:44;;;;;;;5.68;5.22;;;;;;;6.82;70.69;95483.22;4996229;28;20298;-68
2023/03/17 06:51:11;;;;;;;5.15;4.80;;;;;;;7.03;70.35;95486.31;4997842;28;20216;-70
2023/03/17 06:53:38;;;;;;;7.82;5.18;;;;;;;7.09;68.92;95494.66;4998602;28;20205;-68
2023/03/17 06:56:05;;;;;;;6.00;4.97;;;;;;;7.12;69.33;95486.19;5000349;28;20263;-69
2023/03/17 06:58:33;;;;;;;4.55;4.25;;;;;;;7.16;68.95;95487.84;4999327;28;20200;-68
2023/03/17 07:01:00;;;;;;;5.03;4.43;;;;;;;7.21;68.73;95486.06;4999288;28;20306;-69
2023/03/17 07:03:27;;;;;;;5.60;4.97;;;;;;;7.37;67.14;95486.69;4998075;28;20332;-68
2023/03/17 07:05:54;;;;;;;5.60;5.20;;;;;;;7.39;67.67;95490.88;4996863;28;20708;-69
2023/03/17 07:08:21;;;;;;;6.78;6.18;;;;;;;7.45;68.05;95494.97;4998130;28;21092;-69
2023/03/17 07:10:48;;;;;;;6.15;5.57;;;;;;;7.58;67.72;95491.44;4999353;28;20725;-68
2023/03/17 07:13:15;;;;;;;6.80;6.25;;;;;;;7.59;67.33;95484.69;4999479;28;20215;-69
2023/03/17 07:15:44;;;;;;;6.93;6.32;;;;;;;7.58;66.41;95490.59;4998548;28;20266;-69
2023/03/17 07:18:12;;;;;;;5.75;5.25;;;;;;;7.74;65.58;95495.38;4999004;28;20309;-69
2023/03/17 07:20:39;;;;;;;6.50;5.90;;;;;;;7.79;65.87;95496.16;4998990;28;20299;-69
2023/03/17 07:23:06;;;;;;;6.45;5.60;;;;;;;7.86;66.04;95499.44;4998940;28;20220;-68
2023/03/17 07:25:35;;;;;;;4.97;4.45;;;;;;;7.96;66.21;95498.41;4996836;28;20215;-69
2023/03/17 07:28:02;;;;;;;4.47;4.18;;;;;;;8.03;64.66;95499.97;4997591;28;22207;-69
2023/03/17 07:30:29;;;;;;;5.07;4.43;;;;;;;8.23;64.07;95503.84;4995663;28;20208;-69
2023/03/17 07:32:57;;;;;;;3.65;3.28;;;;;;;8.33;63.18;95502.88;4997771;28;20243;-69
2023/03/17 07:35:24;;;;;;;3.17;2.85;;;;;;;8.35;61.86;95502.00;4997937;28;20203;-69
2023/03/17 07:37:50;;;;;;;4.45;4.15;;;;;;;8.42;61.95;95502.69;4996961;28;20241;-69
2023/03/17 07:40:18;;;;;;;3.75;3.50;;;;;;;8.32;61.93;95496.13;4998644;28;20805;-68
2023/03/17 07:42:45;;;;;;;3.85;3.55;;;;;;;8.30;63.04;95501.19;4998361;28;20232;-70
2023/03/17 07:45:12;;;;;;;4.03;3.72;;;;;;;8.46;63.00;95509.38;4997924;28;20204;-70
2023/03/17 07:47:38;;;;;;;3.17;2.97;;;;;;;8.63;62.52;95507.38;4997648;28;20203;-69
2023/03/17 07:50:08;;;;;;;3.60;3.40;;;;;;;8.68;62.60;95513.19;4997382;28;20598;-69
2023/03/17 07:52:35;;;;;;;3.33;3.10;;;;;;;8.67;62.95;95503.91;4998415;28;20200;-68
2023/03/17 07:55:02;;;;;;;3.50;3.30;;;;;;;8.91;62.06;95511.94;4996598;28;20288;-68
2023/03/17 07:57:29;;;;;;;4.07;3.45;;;;;;;8.99;59.65;95512.59;4996458;28;20290;-69
2023/03/17 07:59:55;;;;;;;3.35;3.15;;;;;;;8.96;59.73;95510.13;4996068;28;20219;-69
2023/03/17 08:02:23;;;;;;;3.40;3.20;;;;;;;8.92;59.61;95511.03;4995040;28;20738;-69
2023/03/17 08:04:50;;;;;;;3.45;3.25;;;;;;;9.01;59.38;95523.53;4997979;28;20660;-69
2023/03/17 08:07:18;;;;;;;3.78;3.42;;;;;;;9.16;59.39;95518.97;4995572;28;20227;-69
2023/03/17 08:09:45;;;;;;;3.88;3.35;;;;;;;9.21;59.70;95521.41;4997531;28;20200;-70
2023/03/17 08:12:12;;;;;;;4.43;4.00;;;;;;;9.23;58.26;95521.38;4998066;28;20892;-68
2023/03/17 08:14:40;;;;;;;4.07;3.75;;;;;;;9.16;59.15;95523.22;4999045;28;20206;-69
2023/03/17 08:17:07;;;;;;;5.00;4.53;;;;;;;9.14;59.23;95522.44;4998082;28;20208;-72
2023/03/17 08:19:34;;;;;;;4.18;3.88;;;;;;;9.27;58.76;95528.06;5001571;28;20208;-69
2023/03/17 08:22:01;;;;;;;4.38;3.97;;;;;;;9.27;58.72;95518.75;4988640;28;20263;-69
2023/03/17 08:24:29;;;;;;;4.05;3.70;;;;;;;9.32;57.39;95529.66;4997861;28;20811;-69
2023/03/17 08:26:56;;;;;;;4.38;4.07;;;;;;;9.29;57.51;95524.63;4996065;28;20323;-69
2023/03/17 08:29:22;;;;;;;4.60;4.20;;;;;;;9.31;57.77;95519.53;4995801;28;20278;-69
2023/03/17 08:31:49;;;;;;;3.58;3.28;;;;;;;9.31;56.47;95519.53;4996687;28;20259;-70
2023/03/17 08:34:16;;;;;;;4.47;4.07;;;;;;;9.33;57.15;95522.88;4995289;28;20355;-70
2023/03/17 08:36:42;;;;;;;4.70;4.15;;;;;;;9.36;56.95;95521.13;4995696;28;20218;-70
2023/03/17 08:39:10;;;;;;;4.82;4.43;;;;;;;9.43;56.77;95522.63;4996281;28;20212;-69
2023/03/17 08:41:38;;;;;;;4.30;3.83;;;;;;;9.49;56.80;95514.88;4997285;28;20204;-70
2023/03/17 08:44:07;;;;;;;4.78;4.38;;;;;;;9.52;57.25;95521.59;4996209;28;20863;-69
2023/03/17 08:46:35;;;;;;;5.63;5.05;;;;;;;9.58;57.15;95521.47;4995015;28;20658;-69
2023/03/17 08:49:02;;;;;;;5.30;4.82;;;;;;;9.57;56.08;95519.81;4996198;28;20238;-69
2023/03/17 08:51:30;;;;;;;5.15;4.68;;;;;;;9.43;55.73;95522.63;4995958;28;20303;-68
2023/03/17 08:53:58;;;;;;;4.80;4.40;;;;;;;9.42;56.11;95528.56;4996832;28;20685;-69
2023/03/17 08:56:25;;;;;;;4.18;3.88;;;;;;;9.29;55.24;95527.19;4996272;28;20303;-71
2023/03/17 08:58:54;;;;;;;5.30;4.82;;;;;;;9.36;56.31;95526.19;4997052;28;20208;-67
2023/03/17 09:01:22;;;;;;;5.85;4.80;;;;;;;9.34;56.40;95527.91;4997304;28;20236;-69
2023/03/17 09:03:50;;;;;;;4.82;4.43;;;;;;;9.54;55.91;95523.25;4996679;28;20689;-69
2023/03/17 09:06:17;;;;;;;4.47;4.18;;;;;;;9.64;55.70;95520.50;4995221;28;20327;-69
2023/03/17 09:08:46;;;;;;;4.30;4.00;;;;;;;9.78;54.96;95524.38;4994810;28;20303;-70
2023/03/17 09:11:15;;;;;;;4.57;3.90;;;;;;;9.73;54.86;95522.81;4995994;28;20748;-68
2023/03/17 09:13:42;;;;;;;5.25;4.45;;;;;;;9.73;54.54;95533.81;4997002;28;20684;-69
2023/03/17 09:16:10;;;;;;;5.00;4.57;;;;;;;9.40;55.91;95532.84;4996336;28;20211;-69
2023/03/17 09:18:37;;;;;;;4.95;4.55;;;;;;;9.22;55.80;95528.16;4995345;28;20235;-69
2023/03/17 09:21:05;;;;;;;6.65;5.88;;;;;;;9.16;56.68;95530.81;4995158;28;20335;-69
2023/03/17 09:23:32;;;;;;;5.70;5.20;;;;;;;9.19;56.39;95529.06;4995854;28;20263;-69
2023/03/17 09:25:59;;;;;;;5.60;4.38;;;;;;;9.36;55.82;95531.25;4995392;28;20713;-69
2023/03/17 09:28:26;;;;;;;4.85;4.20;;;;;;;9.38;55.42;95529.53;4994778;28;20215;-69
2023/03/17 09:30:58;;;;;;;4.70;4.30;;;;;;;9.63;55.69;95529.81;4996170;28;20706;-70
2023/03/17 09:33:26;;;;;;;4.00;3.70;;;;;;;9.99;54.99;95522.22;4996257;28;21636;-69
2023/03/17 09:35:55;;;;;;;4.95;4.47;;;;;;;10.23;54.57;95521.66;4994934;28;20288;-69
2023/03/17 09:38:22;;;;;;;6.45;4.32;;;;;;;10.57;53.92;95529.25;4994068;28;20204;-69
2023/03/17 09:40:57;;;;;;;4.35;3.95;;;;;;;10.49;52.62;95526.91;4995970;28;20300;-68
2023/03/17 09:43:32;;;;;;;8.68;5.50;;;;;;;10.55;52.47;95531.84;4997540;28;20231;-69
2023/03/17 09:46:18;;;;;;;5.90;5.00;;;;;;;10.73;51.72;95533.03;4996847;28;20210;-69
2023/03/17 09:48:53;;;;;;;4.88;4.40;;;;;;;10.80;51.18;95534.56;4994234;28;20274;-68
2023/03/17 09:51:21;;;;;;;7.00;6.25;;;;;;;10.89;52.01;95544.47;4995688;28;20349;-69
2023/03/17 09:53:54;;;;;;;6.78;5.35;;;;;;;11.02;52.58;95536.50;4995180;28;20208;-68
2023/03/17 09:56:22;;;;;;;5.32;4.75;;;;;;;10.98;51.29;95540.84;5000586;28;20208;-69
2023/03/17 09:58:54;;;;;;;4.88;4.38;;;;;;;10.92;50.32;95546.09;4998733;28;20293;-71
2023/03/17 10:01:22;;;;;;;4.93;4.28;;;;;;;10.49;51.95;95547.22;4999192;28;20295;-69
2023/03/17 10:03:50;;;;;;;4.78;4.38;;;;;;;10.37;52.31;95529.78;4998273;28;20287;-69
2023/03/17 10:06:31;;;;;;;4.95;4.32;;;;;;;10.49;52.15;95543.84;4998452;28;20204;-70
2023/03/17 10:09:05;;;;;;;5.00;4.40;;;;;;;10.69;51.11;95539.09;4998916;28;20212;-70
2023/03/17 10:11:40;;;;;;;7.10;4.47;;;;;;;10.76;51.25;95538.06;4998569;28;21621;-70
2023/03/17 10:14:18;;;;;;;3.85;3.55;;;;;;;10.86;50.48;95534.41;4999730;28;21786;-68
2023/03/17 10:16:52;;;;;;;4.70;4.30;;;;;;;10.80;51.09;95532.03;4998328;28;20236;-70
2023/03/17 10:19:27;;;;;;;3.92;3.33;;;;;;;10.76;50.65;95532.13;4998873;28;20208;-68
2023/03/17 10:21:58;;;;;;;8.98;5.25;;;;;;;10.86;49.71;95529.31;4998629;28;20237;-69
2023/03/17 10:24:25;;;;;;;4.03;3.65;;;;;;;10.98;49.72;95529.84;4999878;28;20230;-68
2023/03/17 10:26:56;;;;;;;3.70;3.40;;;;;;;11.10;49.29;95530.34;4998228;28;20224;-69
2023/03/17 10:29:23;;;;;;;4.35;3.92;;;;;;;11.00;49.35;95515.38;4997548;28;20212;-71
2023/03/17 10:31:52;;;;;;;4.65;3.45;;;;;;;11.12;48.99;95531.13;4997920;28;20217;-70
2023/03/17 10:34:25;;;;;;;4.60;3.20;;;;;;;11.04;48.43;95529.69;5000107;28;20655;-69
2023/03/17 10:36:55;;;;;;;3.58;3.22;;;;;;;10.94;49.68;95525.72;4999668;28;20608;-68
2023/03/17 10:39:24;;;;;;;4.00;2.75;;;;;;;10.99;48.91;95534.88;4998390;28;21121;-69
2023/03/17 10:41:56;;;;;;;3.67;3.38;;;;;;;11.15;48.20;95532.75;4998571;28;20208;-71
2023/03/17 10:44:36;;;;;;;6.15;3.60;;;;;;;11.12;47.85;95525.22;4997798;28;20238;-70
2023/03/17 10:47:03;;;;;;;3.65;3.42;;;;;;;11.07;48.68;95521.97;4997442;28;21134;-69
2023/03/17 10:49:36;;;;;;;2.85;2.65;;;;;;;11.30;48.81;95509.41;4996666;28;20212;-70
2023/03/17 10:52:07;;;;;;;3.90;2.90;;;;;;;11.37;47.61;95500.75;4999199;28;20204;-69
2023/03/17 10:54:35;;;;;;;3.80;3.38;;;;;;;11.61;46.54;95504.25;4998506;28;20211;-70
2023/03/17 10:57:07;;;;;;;6.13;3.00;;;;;;;11.71;46.19;95495.44;4999341;28;20212;-69
2023/03/17 10:59:41;;;;;;;3.67;2.53;;;;;;;11.76;46.42;95492.75;4997573;28;20762;-69
2023/03/17 11:02:21;;;;;;;7.43;2.50;;;;;;;12.07;45.52;95487.56;4998744;28;20212;-69
2023/03/17 11:04:49;;;;;;;3.20;2.90;;;;;;;12.37;44.83;95480.63;4997023;28;20224;-69
2023/03/17 11:07:18;;;;;;;3.40;3.00;;;;;;;12.65;44.01;95478.75;4996385;28;20284;-67
2023/03/17 11:09:50;;;;;;;3.45;3.25;;;;;;;12.79;42.83;95474.03;4996976;28;21659;-68
2023/03/17 11:12:25;;;;;;;3.80;2.47;;;;;;;12.99;43.07;95480.13;4996933;28;20670;-69
2023/03/17 11:14:58;;;;;;;2.80;2.60;;;;;;;13.30;42.93;95483.25;4998424;28;20295;-69
2023/03/17 11:17:37;;;;;;;3.47;2.72;;;;;;;13.54;41.60;95479.75;4998563;28;20208;-69
2023/03/17 11:20:20;;;;;;;7.63;3.08;;;;;;;13.40;41.94;95484.53;4997438;28;20227;-69
2023/03/17 11:22:55;;;;;;;3.42;3.13;;;;;;;13.33;41.39;95489.97;4997478;28;20216;-69
2023/03/17 11:25:23;;;;;;;3.30;2.70;;;;;;;13.12;41.56;95486.41;4995874;28;20683;-68
2023/03/17 11:28:10;;;;;;;4.10;2.88;;;;;;;12.94;42.18;95482.84;4997638;28;20236;-69
2023/03/17 11:30:43;;;;;;;4.95;2.97;;;;;;;13.13;41.17;95477.88;4997424;28;20690;-69
2023/03/17 11:33:23;;;;;;;4.43;1.98;;;;;;;13.38;42.30;95473.56;4996963;28;20397;-69
2023/03/17 11:35:57;;;;;;;2.70;2.50;;;;;;;13.40;41.48;95476.88;4997030;28;20207;-69
2023/03/17 11:38:27;;;;;;;2.50;2.30;;;;;;;13.03;41.43;95476.56;4997229;28;20301;-70
2023/03/17 11:41:15;;;;;;;2.80;2.60;;;;;;;12.78;41.45;95472.34;4996356;28;20213;-69
2023/03/17 11:43:58;;;;;;;4.55;2.80;;;;;;;12.65;42.59;95471.09;4997851;28;20318;-69
2023/03/17 11:46:28;;;;;;;2.53;2.42;;;;;;;12.35;42.46;95467.91;4998129;28;20234;-70